sensor_id;sensor_type;location;lat;lon;timestamp;pressure;altitude;pressure_sealevel;temperature;humidity
45403;BME280;47427;51.976;5.326;2022-12-11T00:01:11;101104.91;;;1.37;100.00
45403;BME280;47427;51.976;5.326;2022-12-11T00:04:33;101109.19;;;1.50;100.00
45403;BME280;47427;51.976;5.326;2022-12-11T00:07:54;101101.94;;;1.44;100.00
45403;BME280;47427;51.976;5.326;2022-12-11T00:11:17;101086.00;;;1.51;100.00
45403;BME280;47427;51.976;5.326;2022-12-11T00:14:59;101114.78;;;1.69;100.00
45403;BME280;47427;51.976;5.326;2022-12-11T00:18:21;101109.78;;;1.59;100.00
45403;BME280;47427;51.976;5.326;2022-12-11T00:21:43;101108.53;;;1.66;100.00
45403;BME280;47427;51.976;5.326;2022-12-11T00:25:05;101094.69;;;1.52;100.00
45403;BME280;47427;51.976;5.326;2022-12-11T00:28:27;101106.19;;;1.44;100.00
45403;BME280;47427;51.976;5.326;2022-12-11T00:31:49;101111.88;;;1.51;100.00
45403;BME280;47427;51.976;5.326;2022-12-11T00:35:11;101113.06;;;1.57;100.00
45403;BME280;47427;51.976;5.326;2022-12-11T00:38:33;101111.88;;;1.51;100.00
45403;BME280;47427;51.976;5.326;2022-12-11T00:41:54;101105.94;;;1.52;100.00
45403;BME280;47427;51.976;5.326;2022-12-11T00:45:17;101103.53;;;1.42;100.00
45403;BME280;47427;51.976;5.326;2022-12-11T00:48:39;101098.22;;;1.41;100.00
45403;BME280;47427;51.976;5.326;2022-12-11T00:52:00;101098.09;;;1.26;100.00
45403;BME280;47427;51.976;5.326;2022-12-11T00:55:22;101100.00;;;1.28;100.00
45403;BME280;47427;51.976;5.326;2022-12-11T00:58:46;101104.72;;;1.47;100.00
45403;BME280;47427;51.976;5.326;2022-12-11T01:02:08;101093.25;;;1.44;100.00
45403;BME280;47427;51.976;5.326;2022-12-11T01:05:30;101094.78;;;1.54;100.00
45403;BME280;47427;51.976;5.326;2022-12-11T01:08:53;101100.44;;;1.61;100.00
45403;BME280;47427;51.976;5.326;2022-12-11T01:12:35;101092.81;;;1.63;100.00
45403;BME280;47427;51.976;5.326;2022-12-11T01:15:57;101091.97;;;1.37;100.00
45403;BME280;47427;51.976;5.326;2022-12-11T01:19:19;101080.25;;;1.42;100.00
45403;BME280;47427;51.976;5.326;2022-12-11T01:22:41;101089.59;;;1.54;100.00
45403;BME280;47427;51.976;5.326;2022-12-11T01:26:12;101102.03;;;1.46;100.00
45403;BME280;47427;51.976;5.326;2022-12-11T01:29:35;101098.66;;;1.47;100.00
45403;BME280;47427;51.976;5.326;2022-12-11T01:32:58;101093.88;;;1.53;100.00
45403;BME280;47427;51.976;5.326;2022-12-11T01:36:22;101085.59;;;1.32;100.00
45403;BME280;47427;51.976;5.326;2022-12-11T01:39:45;101092.75;;;1.36;100.00
45403;BME280;47427;51.976;5.326;2022-12-11T01:43:10;101096.22;;;1.37;100.00
45403;BME280;47427;51.976;5.326;2022-12-11T01:46:35;101099.50;;;1.34;100.00
45403;BME280;47427;51.976;5.326;2022-12-11T01:49:58;101094.66;;;1.39;100.00
45403;BME280;47427;51.976;5.326;2022-12-11T01:53:34;101087.63;;;1.49;100.00
45403;BME280;47427;51.976;5.326;2022-12-11T01:57:06;101083.16;;;1.47;100.00
45403;BME280;47427;51.976;5.326;2022-12-11T02:00:30;101086.72;;;1.49;100.00
45403;BME280;47427;51.976;5.326;2022-12-11T02:03:55;101086.63;;;1.61;100.00
45403;BME280;47427;51.976;5.326;2022-12-11T02:07:18;101076.91;;;1.70;100.00
45403;BME280;47427;51.976;5.326;2022-12-11T02:11:26;101063.66;;;1.65;100.00
45403;BME280;47427;51.976;5.326;2022-12-11T02:18:45;101065.56;;;1.55;100.00
45403;BME280;47427;51.976;5.326;2022-12-11T02:22:15;101063.56;;;1.50;100.00
45403;BME280;47427;51.976;5.326;2022-12-11T02:30:08;101060.66;;;1.59;100.00
45403;BME280;47427;51.976;5.326;2022-12-11T02:33:48;101051.00;;;1.57;100.00
45403;BME280;47427;51.976;5.326;2022-12-11T02:37:22;101047.34;;;1.53;100.00
45403;BME280;47427;51.976;5.326;2022-12-11T02:40:45;101050.13;;;1.69;100.00
45403;BME280;47427;51.976;5.326;2022-12-11T02:44:11;101059.56;;;1.82;100.00
45403;BME280;47427;51.976;5.326;2022-12-11T02:47:34;101048.81;;;1.89;100.00
45403;BME280;47427;51.976;5.326;2022-12-11T02:50:59;101056.00;;;1.93;100.00
45403;BME280;47427;51.976;5.326;2022-12-11T02:54:27;101039.19;;;1.73;100.00
45403;BME280;47427;51.976;5.326;2022-12-11T02:58:15;101050.34;;;1.72;100.00
45403;BME280;47427;51.976;5.326;2022-12-11T03:01:38;101045.06;;;1.71;100.00
45403;BME280;47427;51.976;5.326;2022-12-11T03:05:00;101051.41;;;1.76;100.00
45403;BME280;47427;51.976;5.326;2022-12-11T03:08:21;101048.94;;;1.78;100.00
45403;BME280;47427;51.976;5.326;2022-12-11T03:11:43;101039.88;;;1.84;100.00
45403;BME280;47427;51.976;5.326;2022-12-11T03:15:09;101050.03;;;1.81;100.00
45403;BME280;47427;51.976;5.326;2022-12-11T03:19:01;101038.59;;;1.78;100.00
45403;BME280;47427;51.976;5.326;2022-12-11T03:22:38;101050.91;;;1.82;100.00
45403;BME280;47427;51.976;5.326;2022-12-11T03:26:04;101047.84;;;1.74;100.00
45403;BME280;47427;51.976;5.326;2022-12-11T03:29:35;101053.50;;;1.68;100.00
45403;BME280;47427;51.976;5.326;2022-12-11T03:33:07;101051.91;;;1.84;100.00
45403;BME280;47427;51.976;5.326;2022-12-11T03:36:33;101044.44;;;1.88;100.00
45403;BME280;47427;51.976;5.326;2022-12-11T03:40:02;101048.53;;;1.98;100.00
45403;BME280;47427;51.976;5.326;2022-12-11T03:43:25;101047.78;;;2.14;100.00
45403;BME280;47427;51.976;5.326;2022-12-11T03:46:50;101036.75;;;2.16;100.00
45403;BME280;47427;51.976;5.326;2022-12-11T03:50:15;101044.81;;;2.21;100.00
45403;BME280;47427;51.976;5.326;2022-12-11T03:53:39;101044.84;;;2.08;100.00
45403;BME280;47427;51.976;5.326;2022-12-11T03:57:03;101044.63;;;2.05;100.00
45403;BME280;47427;51.976;5.326;2022-12-11T04:00:26;101040.47;;;1.93;100.00
45403;BME280;47427;51.976;5.326;2022-12-11T04:03:48;101044.53;;;1.90;100.00
45403;BME280;47427;51.976;5.326;2022-12-11T04:07:09;101053.59;;;1.83;100.00
45403;BME280;47427;51.976;5.326;2022-12-11T04:10:31;101038.28;;;1.86;100.00
45403;BME280;47427;51.976;5.326;2022-12-11T04:13:52;101041.34;;;1.94;100.00
45403;BME280;47427;51.976;5.326;2022-12-11T04:17:36;101030.63;;;1.88;100.00
45403;BME280;47427;51.976;5.326;2022-12-11T04:21:16;101034.19;;;2.03;100.00
45403;BME280;47427;51.976;5.326;2022-12-11T04:24:56;101031.13;;;1.95;100.00
45403;BME280;47427;51.976;5.326;2022-12-11T04:28:18;101022.13;;;2.04;100.00
45403;BME280;47427;51.976;5.326;2022-12-11T04:31:40;101021.25;;;2.03;100.00
45403;BME280;47427;51.976;5.326;2022-12-11T04:35:02;101025.56;;;2.17;100.00
45403;BME280;47427;51.976;5.326;2022-12-11T04:38:23;101011.44;;;2.12;100.00
45403;BME280;47427;51.976;5.326;2022-12-11T04:41:45;101013.97;;;2.11;100.00
45403;BME280;47427;51.976;5.326;2022-12-11T04:45:08;101021.09;;;2.15;100.00
45403;BME280;47427;51.976;5.326;2022-12-11T04:48:30;101011.75;;;2.17;100.00
45403;BME280;47427;51.976;5.326;2022-12-11T04:51:51;101026.88;;;2.24;99.96
45403;BME280;47427;51.976;5.326;2022-12-11T04:55:13;101011.53;;;1.86;99.44
45403;BME280;47427;51.976;5.326;2022-12-11T04:58:35;101024.56;;;1.74;100.00
45403;BME280;47427;51.976;5.326;2022-12-11T05:01:57;101027.06;;;1.72;99.73
45403;BME280;47427;51.976;5.326;2022-12-11T05:05:20;101027.13;;;1.74;99.76
45403;BME280;47427;51.976;5.326;2022-12-11T05:08:43;101027.84;;;1.58;99.60
45403;BME280;47427;51.976;5.326;2022-12-11T05:12:06;101012.81;;;1.66;100.00
45403;BME280;47427;51.976;5.326;2022-12-11T05:15:29;101022.28;;;1.79;99.64
45403;BME280;47427;51.976;5.326;2022-12-11T05:18:53;101023.66;;;1.87;99.64
45403;BME280;47427;51.976;5.326;2022-12-11T05:22:17;101026.44;;;1.77;99.55
45403;BME280;47427;51.976;5.326;2022-12-11T05:25:39;101015.41;;;1.79;99.23
45403;BME280;47427;51.976;5.326;2022-12-11T05:29:02;101021.28;;;1.77;98.63
45403;BME280;47427;51.976;5.326;2022-12-11T05:32:25;101020.28;;;1.74;98.77
45403;BME280;47427;51.976;5.326;2022-12-11T05:35:48;101023.50;;;1.57;98.53
45403;BME280;47427;51.976;5.326;2022-12-11T05:39:11;101023.88;;;1.63;98.74
45403;BME280;47427;51.976;5.326;2022-12-11T05:42:34;101017.41;;;1.57;99.14
45403;BME280;47427;51.976;5.326;2022-12-11T05:46:09;101011.66;;;1.47;99.23
45403;BME280;47427;51.976;5.326;2022-12-11T05:49:33;101003.75;;;1.59;98.99
45403;BME280;47427;51.976;5.326;2022-12-11T05:52:56;101003.66;;;1.71;98.64
45403;BME280;47427;51.976;5.326;2022-12-11T05:56:26;101009.34;;;1.79;98.52
45403;BME280;47427;51.976;5.326;2022-12-11T05:59:49;101008.34;;;1.77;98.47
45403;BME280;47427;51.976;5.326;2022-12-11T06:03:12;101003.47;;;1.68;98.42
45403;BME280;47427;51.976;5.326;2022-12-11T06:06:35;101008.84;;;1.71;98.39
45403;BME280;47427;51.976;5.326;2022-12-11T06:09:58;101017.41;;;1.70;98.18
45403;BME280;47427;51.976;5.326;2022-12-11T06:13:21;101010.13;;;1.64;98.09
45403;BME280;47427;51.976;5.326;2022-12-11T06:16:44;101008.84;;;1.58;97.77
45403;BME280;47427;51.976;5.326;2022-12-11T06:20:07;101008.44;;;1.51;98.35
45403;BME280;47427;51.976;5.326;2022-12-11T06:23:30;101012.81;;;1.39;98.28
45403;BME280;47427;51.976;5.326;2022-12-11T06:26:51;101011.34;;;1.43;98.05
45403;BME280;47427;51.976;5.326;2022-12-11T06:30:13;101011.66;;;1.47;97.80
45403;BME280;47427;51.976;5.326;2022-12-11T06:33:35;101022.00;;;1.47;97.48
45403;BME280;47427;51.976;5.326;2022-12-11T06:36:57;101011.84;;;1.50;97.57
45403;BME280;47427;51.976;5.326;2022-12-11T06:40:18;101019.78;;;1.54;97.77
45403;BME280;47427;51.976;5.326;2022-12-11T06:43:41;101030.13;;;1.54;97.23
45403;BME280;47427;51.976;5.326;2022-12-11T06:47:03;101011.84;;;1.37;97.01
45403;BME280;47427;51.976;5.326;2022-12-11T06:50:25;100976.25;;;1.20;96.86
45403;BME280;47427;51.976;5.326;2022-12-11T06:53:52;101026.53;;;1.51;96.21
45403;BME280;47427;51.976;5.326;2022-12-11T06:57:15;101018.78;;;1.38;96.59
45403;BME280;47427;51.976;5.326;2022-12-11T07:00:37;101015.91;;;1.34;96.96
45403;BME280;47427;51.976;5.326;2022-12-11T07:03:59;101020.75;;;1.16;97.11
45403;BME280;47427;51.976;5.326;2022-12-11T07:07:21;101042.06;;;1.38;96.59
45403;BME280;47427;51.976;5.326;2022-12-11T07:10:42;101031.59;;;1.37;96.49
45403;BME280;47427;51.976;5.326;2022-12-11T07:14:04;101034.69;;;1.31;96.84
45403;BME280;47427;51.976;5.326;2022-12-11T07:17:27;101027.13;;;1.21;96.80
45403;BME280;47427;51.976;5.326;2022-12-11T07:20:49;101036.94;;;1.13;97.09
45403;BME280;47427;51.976;5.326;2022-12-11T07:24:11;101030.31;;;1.17;97.05
45403;BME280;47427;51.976;5.326;2022-12-11T07:27:32;101031.00;;;1.27;96.75
45403;BME280;47427;51.976;5.326;2022-12-11T07:30:54;101028.56;;;1.42;96.48
45403;BME280;47427;51.976;5.326;2022-12-11T07:34:16;101033.41;;;1.51;96.19
45403;BME280;47427;51.976;5.326;2022-12-11T07:37:39;101029.94;;;1.64;95.79
45403;BME280;47427;51.976;5.326;2022-12-11T07:41:03;101032.03;;;1.43;95.63
45403;BME280;47427;51.976;5.326;2022-12-11T07:44:45;101045.59;;;1.14;96.39
45403;BME280;47427;51.976;5.326;2022-12-11T07:48:07;101051.44;;;1.11;96.49
45403;BME280;47427;51.976;5.326;2022-12-11T07:51:32;101046.91;;;1.20;96.14
45403;BME280;47427;51.976;5.326;2022-12-11T07:54:53;101052.81;;;1.06;96.75
45403;BME280;47427;51.976;5.326;2022-12-11T07:58:15;101050.78;;;0.89;96.66
45403;BME280;47427;51.976;5.326;2022-12-11T08:01:37;101067.22;;;1.02;96.45
45403;BME280;47427;51.976;5.326;2022-12-11T08:04:59;101049.53;;;0.95;96.63
45403;BME280;47427;51.976;5.326;2022-12-11T08:08:21;101058.28;;;0.97;96.78
45403;BME280;47427;51.976;5.326;2022-12-11T08:11:42;101053.50;;;1.03;96.96
45403;BME280;47427;51.976;5.326;2022-12-11T08:15:04;101054.25;;;1.14;96.74
45403;BME280;47427;51.976;5.326;2022-12-11T08:18:26;101052.59;;;1.28;96.30
45403;BME280;47427;51.976;5.326;2022-12-11T08:21:48;101047.22;;;1.25;96.34
45403;BME280;47427;51.976;5.326;2022-12-11T08:25:09;101054.53;;;1.19;96.96
45403;BME280;47427;51.976;5.326;2022-12-11T08:28:31;101044.44;;;1.35;96.31
45403;BME280;47427;51.976;5.326;2022-12-11T08:31:53;101036.81;;;1.50;96.01
45403;BME280;47427;51.976;5.326;2022-12-11T08:35:15;101038.19;;;1.71;95.11
45403;BME280;47427;51.976;5.326;2022-12-11T08:38:37;101030.84;;;1.78;94.72
45403;BME280;47427;51.976;5.326;2022-12-11T08:41:58;101027.94;;;1.73;94.51
45403;BME280;47427;51.976;5.326;2022-12-11T08:45:20;101021.75;;;1.98;93.96
45403;BME280;47427;51.976;5.326;2022-12-11T08:48:42;101024.84;;;2.05;93.32
45403;BME280;47427;51.976;5.326;2022-12-11T08:52:05;101038.56;;;2.04;93.30
45403;BME280;47427;51.976;5.326;2022-12-11T08:55:26;101027.31;;;2.04;92.87
45403;BME280;47427;51.976;5.326;2022-12-11T08:58:48;101018.75;;;2.05;93.29
45403;BME280;47427;51.976;5.326;2022-12-11T09:02:11;101018.47;;;2.00;92.94
45403;BME280;47427;51.976;5.326;2022-12-11T09:05:33;101014.50;;;1.79;93.10
45403;BME280;47427;51.976;5.326;2022-12-11T09:08:58;101030.50;;;2.00;92.98
45403;BME280;47427;51.976;5.326;2022-12-11T09:12:20;101019.38;;;2.01;92.99
45403;BME280;47427;51.976;5.326;2022-12-11T09:15:41;101021.53;;;2.08;92.71
45403;BME280;47427;51.976;5.326;2022-12-11T09:19:03;101026.72;;;2.08;92.79
45403;BME280;47427;51.976;5.326;2022-12-11T09:22:25;101028.31;;;2.06;92.73
45403;BME280;47427;51.976;5.326;2022-12-11T09:25:46;101020.66;;;1.94;92.84
45403;BME280;47427;51.976;5.326;2022-12-11T09:29:09;101021.53;;;2.08;92.88
45403;BME280;47427;51.976;5.326;2022-12-11T09:32:33;101015.78;;;1.99;93.15
45403;BME280;47427;51.976;5.326;2022-12-11T09:36:03;101017.78;;;2.03;93.44
45403;BME280;47427;51.976;5.326;2022-12-11T09:39:25;101008.97;;;2.14;92.90
45403;BME280;47427;51.976;5.326;2022-12-11T09:43:33;101022.50;;;2.23;92.95
45403;BME280;47427;51.976;5.326;2022-12-11T09:46:58;101017.06;;;2.05;93.24
45403;BME280;47427;51.976;5.326;2022-12-11T09:50:25;101009.00;;;2.01;92.71
45403;BME280;47427;51.976;5.326;2022-12-11T09:53:48;101005.78;;;2.18;92.85
45403;BME280;47427;51.976;5.326;2022-12-11T09:57:38;101018.25;;;2.10;93.23
45403;BME280;47427;51.976;5.326;2022-12-11T10:01:13;101022.91;;;2.16;93.33
45403;BME280;47427;51.976;5.326;2022-12-11T10:16:02;101017.69;;;2.29;93.39
45403;BME280;47427;51.976;5.326;2022-12-11T10:19:29;101003.44;;;2.08;93.90
45403;BME280;47427;51.976;5.326;2022-12-11T10:22:51;101003.59;;;2.11;94.13
45403;BME280;47427;51.976;5.326;2022-12-11T10:26:20;101000.78;;;2.21;94.14
45403;BME280;47427;51.976;5.326;2022-12-11T10:29:42;101005.59;;;2.02;95.13
45403;BME280;47427;51.976;5.326;2022-12-11T10:37:09;100999.22;;;2.38;94.35
45403;BME280;47427;51.976;5.326;2022-12-11T10:40:33;100998.91;;;2.47;94.36
45403;BME280;47427;51.976;5.326;2022-12-11T10:43:56;100979.69;;;2.15;94.23
45403;BME280;47427;51.976;5.326;2022-12-11T10:47:18;100997.63;;;2.40;94.04
45403;BME280;47427;51.976;5.326;2022-12-11T10:50:40;100985.84;;;2.17;94.01
45403;BME280;47427;51.976;5.326;2022-12-11T10:54:16;100977.81;;;2.12;94.41
45403;BME280;47427;51.976;5.326;2022-12-11T10:57:45;100984.41;;;2.35;93.58
45403;BME280;47427;51.976;5.326;2022-12-11T11:01:17;100958.28;;;2.46;93.76
45403;BME280;47427;51.976;5.326;2022-12-11T11:04:42;100980.34;;;2.54;93.53
45403;BME280;47427;51.976;5.326;2022-12-11T11:08:21;100963.03;;;2.68;93.32
45403;BME280;47427;51.976;5.326;2022-12-11T11:12:19;100956.88;;;2.66;92.48
45403;BME280;47427;51.976;5.326;2022-12-11T11:15:41;100965.56;;;2.66;92.83
45403;BME280;47427;51.976;5.326;2022-12-11T11:19:04;100960.75;;;2.87;93.00
45403;BME280;47427;51.976;5.326;2022-12-11T11:22:51;100971.56;;;2.95;92.40
45403;BME280;47427;51.976;5.326;2022-12-11T11:26:14;100972.44;;;2.95;92.57
45403;BME280;47427;51.976;5.326;2022-12-11T11:29:36;100970.78;;;2.53;93.04
45403;BME280;47427;51.976;5.326;2022-12-11T11:33:24;100979.25;;;2.50;93.53
45403;BME280;47427;51.976;5.326;2022-12-11T11:36:55;100965.06;;;2.44;93.03
45403;BME280;47427;51.976;5.326;2022-12-11T11:44:36;100976.13;;;2.41;93.07
45403;BME280;47427;51.976;5.326;2022-12-11T11:59:43;100955.69;;;2.46;92.70
45403;BME280;47427;51.976;5.326;2022-12-11T12:03:18;100960.56;;;2.26;93.01
45403;BME280;47427;51.976;5.326;2022-12-11T12:07:25;100959.00;;;2.43;93.53
45403;BME280;47427;51.976;5.326;2022-12-11T12:10:54;100961.22;;;2.52;93.30
45403;BME280;47427;51.976;5.326;2022-12-11T12:18:45;100955.91;;;2.35;92.92
45403;BME280;47427;51.976;5.326;2022-12-11T12:30:13;100929.03;;;2.19;93.60
45403;BME280;47427;51.976;5.326;2022-12-11T12:38:01;100948.78;;;2.31;93.48
45403;BME280;47427;51.976;5.326;2022-12-11T12:42:01;100949.56;;;2.15;93.43
45403;BME280;47427;51.976;5.326;2022-12-11T12:45:31;100938.81;;;2.09;93.84
45403;BME280;47427;51.976;5.326;2022-12-11T12:49:00;100931.09;;;2.24;93.87
45403;BME280;47427;51.976;5.326;2022-12-11T12:52:32;100910.66;;;2.29;93.22
45403;BME280;47427;51.976;5.326;2022-12-11T12:55:56;100926.19;;;2.29;93.43
45403;BME280;47427;51.976;5.326;2022-12-11T12:59:23;100932.41;;;2.17;93.32
45403;BME280;47427;51.976;5.326;2022-12-11T13:02:50;100922.16;;;2.19;93.79
45403;BME280;47427;51.976;5.326;2022-12-11T13:06:15;100916.16;;;2.20;93.65
45403;BME280;47427;51.976;5.326;2022-12-11T13:10:32;100929.13;;;2.35;93.49
45403;BME280;47427;51.976;5.326;2022-12-11T13:14:28;100928.06;;;2.31;93.61
45403;BME280;47427;51.976;5.326;2022-12-11T13:17:53;100927.28;;;2.47;93.44
45403;BME280;47427;51.976;5.326;2022-12-11T13:21:36;100924.94;;;2.37;94.06
45403;BME280;47427;51.976;5.326;2022-12-11T13:25:25;100931.59;;;2.62;93.01
45403;BME280;47427;51.976;5.326;2022-12-11T13:28:47;100925.34;;;2.43;92.42
45403;BME280;47427;51.976;5.326;2022-12-11T13:35:39;100930.69;;;2.46;92.71
45403;BME280;47427;51.976;5.326;2022-12-11T13:39:28;100945.97;;;2.56;92.20
45403;BME280;47427;51.976;5.326;2022-12-11T13:42:59;100943.22;;;2.53;92.74
45403;BME280;47427;51.976;5.326;2022-12-11T13:46:26;100941.22;;;2.49;92.08
45403;BME280;47427;51.976;5.326;2022-12-11T13:49:54;100931.66;;;2.33;92.82
45403;BME280;47427;51.976;5.326;2022-12-11T13:53:21;100941.50;;;2.54;92.64
45403;BME280;47427;51.976;5.326;2022-12-11T13:57:17;100943.22;;;2.53;92.52
45403;BME280;47427;51.976;5.326;2022-12-11T14:00:41;100951.72;;;2.37;92.95
45403;BME280;47427;51.976;5.326;2022-12-11T14:04:17;100950.56;;;2.32;93.29
45403;BME280;47427;51.976;5.326;2022-12-11T14:07:52;100943.19;;;2.38;93.00
45403;BME280;47427;51.976;5.326;2022-12-11T14:11:24;100946.69;;;2.54;92.57
45403;BME280;47427;51.976;5.326;2022-12-11T14:14:54;100940.94;;;2.45;92.28
45403;BME280;47427;51.976;5.326;2022-12-11T14:18:24;100928.53;;;2.39;92.09
45403;BME280;47427;51.976;5.326;2022-12-11T14:22:04;100929.25;;;2.36;92.61
45403;BME280;47427;51.976;5.326;2022-12-11T14:25:28;100944.06;;;2.39;92.27
45403;BME280;47427;51.976;5.326;2022-12-11T14:28:50;100946.06;;;2.43;92.54
45403;BME280;47427;51.976;5.326;2022-12-11T14:32:37;100941.72;;;2.29;93.30
45403;BME280;47427;51.976;5.326;2022-12-11T14:36:03;100915.13;;;2.31;92.65
45403;BME280;47427;51.976;5.326;2022-12-11T14:43:24;100936.16;;;2.51;92.42
45403;BME280;47427;51.976;5.326;2022-12-11T14:47:05;100939.78;;;2.39;92.33
45403;BME280;47427;51.976;5.326;2022-12-11T14:50:43;100928.84;;;2.30;92.44
45403;BME280;47427;51.976;5.326;2022-12-11T14:54:21;100948.09;;;2.49;92.88
45403;BME280;47427;51.976;5.326;2022-12-11T14:57:48;100952.13;;;2.15;92.74
45403;BME280;47427;51.976;5.326;2022-12-11T15:05:15;100965.09;;;2.30;93.01
45403;BME280;47427;51.976;5.326;2022-12-11T15:08:39;100958.50;;;2.35;92.76
45403;BME280;47427;51.976;5.326;2022-12-11T15:12:17;100963.78;;;2.37;93.16
45403;BME280;47427;51.976;5.326;2022-12-11T15:15:45;100963.72;;;2.50;92.94
45403;BME280;47427;51.976;5.326;2022-12-11T15:19:27;100962.56;;;2.45;93.04
45403;BME280;47427;51.976;5.326;2022-12-11T15:22:52;100963.81;;;2.52;92.49
45403;BME280;47427;51.976;5.326;2022-12-11T15:26:15;100955.31;;;2.39;92.85
45403;BME280;47427;51.976;5.326;2022-12-11T15:29:39;100957.69;;;2.22;92.91
45403;BME280;47427;51.976;5.326;2022-12-11T15:36:35;100971.44;;;2.21;93.74
45403;BME280;47427;51.976;5.326;2022-12-11T15:39:59;100968.31;;;2.26;93.68
45403;BME280;47427;51.976;5.326;2022-12-11T15:43:21;100975.78;;;2.22;93.24
45403;BME280;47427;51.976;5.326;2022-12-11T15:46:43;100978.50;;;2.23;93.52
45403;BME280;47427;51.976;5.326;2022-12-11T15:50:26;100979.38;;;2.24;93.19
45403;BME280;47427;51.976;5.326;2022-12-11T15:53:48;100972.50;;;2.24;92.08
45403;BME280;47427;51.976;5.326;2022-12-11T15:57:15;100982.84;;;2.24;92.01
45403;BME280;47427;51.976;5.326;2022-12-11T16:00:38;100975.44;;;2.02;90.99
45403;BME280;47427;51.976;5.326;2022-12-11T16:04:00;100973.91;;;2.19;90.46
45403;BME280;47427;51.976;5.326;2022-12-11T16:07:24;100978.03;;;2.30;90.11
45403;BME280;47427;51.976;5.326;2022-12-11T16:10:46;100974.38;;;2.27;90.25
45403;BME280;47427;51.976;5.326;2022-12-11T16:14:08;100982.09;;;2.12;90.02
45403;BME280;47427;51.976;5.326;2022-12-11T16:17:30;100965.34;;;2.20;90.41
45403;BME280;47427;51.976;5.326;2022-12-11T16:20:51;100987.97;;;2.09;90.93
45403;BME280;47427;51.976;5.326;2022-12-11T16:24:13;100982.16;;;2.27;90.89
45403;BME280;47427;51.976;5.326;2022-12-11T16:27:34;100976.78;;;2.24;90.57
45403;BME280;47427;51.976;5.326;2022-12-11T16:30:56;100980.75;;;2.32;90.39
45403;BME280;47427;51.976;5.326;2022-12-11T16:34:18;100970.72;;;2.23;90.36
45403;BME280;47427;51.976;5.326;2022-12-11T16:37:39;100950.75;;;2.07;90.15
45403;BME280;47427;51.976;5.326;2022-12-11T16:41:01;100954.78;;;1.89;89.51
45403;BME280;47427;51.976;5.326;2022-12-11T16:44:24;100957.50;;;1.77;88.64
45403;BME280;47427;51.976;5.326;2022-12-11T16:47:47;100966.25;;;1.79;88.82
45403;BME280;47427;51.976;5.326;2022-12-11T16:51:08;100958.25;;;1.89;88.90
45403;BME280;47427;51.976;5.326;2022-12-11T16:54:30;100974.50;;;1.87;88.49
45403;BME280;47427;51.976;5.326;2022-12-11T16:57:52;100967.25;;;1.81;88.69
45403;BME280;47427;51.976;5.326;2022-12-11T17:01:15;100973.00;;;1.90;88.50
45403;BME280;47427;51.976;5.326;2022-12-11T17:04:37;100975.22;;;2.12;88.29
45403;BME280;47427;51.976;5.326;2022-12-11T17:07:59;100985.16;;;2.20;87.97
45403;BME280;47427;51.976;5.326;2022-12-11T17:11:22;100981.31;;;2.13;87.96
45403;BME280;47427;51.976;5.326;2022-12-11T17:14:45;100976.88;;;2.25;87.75
45403;BME280;47427;51.976;5.326;2022-12-11T17:18:07;100975.75;;;2.07;87.55
45403;BME280;47427;51.976;5.326;2022-12-11T17:21:28;100981.94;;;1.95;88.07
45403;BME280;47427;51.976;5.326;2022-12-11T17:24:50;100954.31;;;1.81;88.16
45403;BME280;47427;51.976;5.326;2022-12-11T17:28:12;100978.19;;;1.90;88.07
45403;BME280;47427;51.976;5.326;2022-12-11T17:31:33;100970.00;;;1.84;87.89
45403;BME280;47427;51.976;5.326;2022-12-11T17:34:55;100935.25;;;1.66;87.38
45403;BME280;47427;51.976;5.326;2022-12-11T17:38:16;100969.25;;;1.85;87.45
45403;BME280;47427;51.976;5.326;2022-12-11T17:41:38;100972.53;;;1.83;87.65
45403;BME280;47427;51.976;5.326;2022-12-11T17:44:59;100974.31;;;1.84;87.55
45403;BME280;47427;51.976;5.326;2022-12-11T17:48:21;100984.34;;;1.92;87.15
45403;BME280;47427;51.976;5.326;2022-12-11T17:51:43;100976.22;;;1.73;88.05
45403;BME280;47427;51.976;5.326;2022-12-11T17:55:05;100984.34;;;1.79;87.78
45403;BME280;47427;51.976;5.326;2022-12-11T17:58:27;100982.88;;;1.69;87.66
45403;BME280;47427;51.976;5.326;2022-12-11T18:01:50;100968.28;;;1.43;86.96
45403;BME280;47427;51.976;5.326;2022-12-11T18:05:11;100967.47;;;1.31;87.35
45403;BME280;47427;51.976;5.326;2022-12-11T18:08:33;100975.94;;;1.28;88.03
45403;BME280;47427;51.976;5.326;2022-12-11T18:11:55;100969.38;;;1.34;88.01
45403;BME280;47427;51.976;5.326;2022-12-11T18:15:16;100989.25;;;1.48;88.00
45403;BME280;47427;51.976;5.326;2022-12-11T18:18:41;100982.47;;;1.37;87.80
45403;BME280;47427;51.976;5.326;2022-12-11T18:22:03;100979.53;;;1.17;88.08
45403;BME280;47427;51.976;5.326;2022-12-11T18:25:25;100976.63;;;1.13;87.69
45403;BME280;47427;51.976;5.326;2022-12-11T18:28:49;100970.16;;;1.06;88.22
45403;BME280;47427;51.976;5.326;2022-12-11T18:32:10;100982.78;;;1.15;88.41
45403;BME280;47427;51.976;5.326;2022-12-11T18:35:32;100981.09;;;1.15;88.07
45403;BME280;47427;51.976;5.326;2022-12-11T18:38:54;100977.13;;;1.20;87.40
45403;BME280;47427;51.976;5.326;2022-12-11T18:42:15;100987.28;;;1.30;88.04
45403;BME280;47427;51.976;5.326;2022-12-11T18:45:41;100974.16;;;1.27;86.98
45403;BME280;47427;51.976;5.326;2022-12-11T18:49:05;100984.06;;;1.21;86.89
45403;BME280;47427;51.976;5.326;2022-12-11T18:52:26;100986.19;;;1.27;86.88
45403;BME280;47427;51.976;5.326;2022-12-11T18:55:49;100982.28;;;1.34;87.20
45403;BME280;47427;51.976;5.326;2022-12-11T18:59:11;100946.22;;;1.22;86.80
45403;BME280;47427;51.976;5.326;2022-12-11T19:02:36;100944.72;;;1.25;86.97
45403;BME280;47427;51.976;5.326;2022-12-11T19:06:09;100984.91;;;1.47;86.04
45403;BME280;47427;51.976;5.326;2022-12-11T19:09:31;100984.06;;;1.61;86.37
45403;BME280;47427;51.976;5.326;2022-12-11T19:12:53;100984.56;;;1.69;85.20
45403;BME280;47427;51.976;5.326;2022-12-11T19:16:21;100989.72;;;1.82;84.73
45403;BME280;47427;51.976;5.326;2022-12-11T19:19:43;100983.44;;;2.05;84.64